Time;durP1;ratioP1;P1;durP2;ratioP2;P2;SDS_P1;SDS_P2;PMS_P1;PMS_P2;Temp;Humidity;BMP_temperature;BMP_pressure;BME280_temperature;BME280_humidity;BME280_pressure;Samples;Min_cycle;Max_cycle;Signal;HPM_P1;HPM_P2
2022/05/06 00:02:21;;;;;;;13.97;11.67;;;14.00;62.80;;;;;;4960570;28;47836;-65
2022/05/06 00:04:47;;;;;;;14.20;11.80;;;14.00;63.10;;;;;;4961307;28;46692;-66
2022/05/06 00:07:13;;;;;;;15.63;12.03;;;14.00;63.10;;;;;;4961035;28;46437;-66
2022/05/06 00:09:39;;;;;;;16.43;11.97;;;14.00;63.10;;;;;;4960262;28;46397;-65
2022/05/06 00:12:08;;;;;;;16.80;11.83;;;14.00;63.20;;;;;;4960775;28;48039;-66
2022/05/06 00:14:35;;;;;;;16.90;12.00;;;14.00;63.30;;;;;;4960397;28;46555;-66
2022/05/06 00:17:02;;;;;;;18.30;12.80;;;14.00;63.10;;;;;;4960815;28;46402;-64
2022/05/06 00:19:28;;;;;;;16.90;12.70;;;14.10;63.40;;;;;;4960399;28;46555;-65
2022/05/06 00:21:54;;;;;;;21.70;12.80;;;14.10;63.30;;;;;;4960776;28;48028;-66
2022/05/06 00:24:19;;;;;;;23.20;14.97;;;14.10;63.30;;;;;;4960866;28;46337;-66
2022/05/06 00:26:45;;;;;;;17.77;13.37;;;14.10;63.10;;;;;;4960343;28;46455;-65
2022/05/06 00:29:10;;;;;;;20.40;14.30;;;14.10;63.30;;;;;;4960206;28;46405;-65
2022/05/06 00:31:36;;;;;;;19.40;15.43;;;14.10;63.50;;;;;;4960259;28;48953;-65
2022/05/06 00:34:02;;;;;;;19.20;14.63;;;14.10;63.90;;;;;;4961800;28;46492;-66
2022/05/06 00:36:28;;;;;;;22.07;15.50;;;14.10;64.10;;;;;;4960604;28;45922;-66
2022/05/06 00:38:54;;;;;;;25.07;16.47;;;14.10;64.20;;;;;;4961002;28;46376;-65
2022/05/06 00:41:20;;;;;;;19.37;15.20;;;14.10;64.30;;;;;;4959448;28;47317;-65
2022/05/06 00:43:46;;;;;;;24.27;15.93;;;14.10;64.50;;;;;;4959914;28;46460;-65
2022/05/06 00:46:15;;;;;;;23.47;15.07;;;14.10;64.70;;;;;;4960247;28;46321;-65
2022/05/06 00:48:45;;;;;;;20.30;15.93;;;14.10;64.90;;;;;;4958740;28;46504;-65
2022/05/06 00:51:12;;;;;;;23.10;17.20;;;14.00;66.30;;;;;;4960292;28;46839;-65
2022/05/06 00:53:39;;;;;;;24.30;17.33;;;14.10;65.20;;;;;;4959864;28;46302;-66
2022/05/06 00:56:07;;;;;;;23.43;16.47;;;14.10;65.00;;;;;;4960352;28;46376;-66
2022/05/06 00:58:33;;;;;;;29.53;16.93;;;14.10;64.80;;;;;;4959382;28;46641;-65
2022/05/06 01:01:01;;;;;;;22.13;17.27;;;14.10;64.80;;;;;;4959932;28;47984;-65
2022/05/06 01:03:27;;;;;;;21.67;16.70;;;14.10;65.00;;;;;;4959302;28;46459;-65
2022/05/06 01:05:53;;;;;;;21.40;16.57;;;14.10;65.10;;;;;;4959421;28;46511;-66
2022/05/06 01:08:21;;;;;;;23.53;17.20;;;14.10;65.20;;;;;;4959372;28;45934;-65
2022/05/06 01:10:47;;;;;;;23.93;17.30;;;14.10;65.40;;;;;;4959385;28;46803;-65
2022/05/06 01:13:13;;;;;;;26.60;16.37;;;14.10;65.80;;;;;;4959396;28;46474;-65
2022/05/06 01:15:39;;;;;;;25.03;16.97;;;14.10;65.90;;;;;;4958800;28;46527;-65
2022/05/06 01:18:05;;;;;;;27.63;17.30;;;14.10;66.00;;;;;;4959831;28;46387;-65
2022/05/06 01:20:37;;;;;;;19.93;15.00;;;14.10;66.00;;;;;;4957248;28;47826;-66
2022/05/06 01:23:04;;;;;;;16.47;12.67;;;14.10;65.90;;;;;;4958542;28;46404;-66
2022/05/06 01:25:30;;;;;;;15.73;12.50;;;14.10;65.80;;;;;;4959770;28;46460;-66
2022/05/06 01:28:02;;;;;;;17.20;12.00;;;14.10;65.90;;;;;;4959270;28;46592;-66
2022/05/06 01:30:37;;;;;;;15.50;12.10;;;14.00;66.10;;;;;;4958743;28;48276;-65
2022/05/06 01:33:08;;;;;;;16.37;11.47;;;14.00;66.30;;;;;;4959750;28;46416;-65
2022/05/06 01:35:46;;;;;;;13.47;10.30;;;14.00;66.30;;;;;;4960341;28;46379;-65
2022/05/06 01:38:32;;;;;;;16.77;9.87;;;14.00;66.20;;;;;;4959458;28;46135;-65
2022/05/06 01:41:08;;;;;;;15.57;11.00;;;13.90;66.50;;;;;;4959507;28;47426;-65
2022/05/06 01:43:40;;;;;;;12.50;10.10;;;13.90;66.60;;;;;;4959318;28;46579;-66
2022/05/06 01:46:09;;;;;;;16.40;11.17;;;13.80;66.60;;;;;;4959163;28;46348;-65
2022/05/06 01:48:36;;;;;;;15.40;11.43;;;13.80;66.70;;;;;;4958606;28;46443;-66
2022/05/06 01:51:02;;;;;;;16.60;10.17;;;13.70;66.80;;;;;;4958477;28;46500;-65
2022/05/06 01:53:28;;;;;;;13.37;9.60;;;13.70;67.00;;;;;;4958744;28;46584;-65
2022/05/06 01:55:54;;;;;;;12.80;9.90;;;13.60;67.30;;;;;;4959734;28;46250;-65
2022/05/06 01:58:20;;;;;;;11.37;8.70;;;13.60;67.70;;;;;;4962023;28;46390;-65
2022/05/06 02:00:46;;;;;;;13.47;9.43;;;13.60;67.70;;;;;;4962524;28;46484;-65
2022/05/06 02:05:56;;;;;;;16.17;11.40;;;13.40;68.00;;;;;;4954181;28;46499;-65
2022/05/06 02:08:22;;;;;;;23.60;16.50;;;13.30;68.40;;;;;;4956766;28;46512;-65
2022/05/06 02:10:47;;;;;;;19.43;13.27;;;13.20;68.60;;;;;;4959151;28;46513;-66
2022/05/06 02:13:13;;;;;;;20.90;14.10;;;13.20;68.80;;;;;;4950524;28;46397;-65
2022/05/06 02:15:40;;;;;;;21.67;15.10;;;13.20;68.70;;;;;;4951213;28;46773;-66
2022/05/06 02:18:05;;;;;;;21.80;15.90;;;13.20;68.70;;;;;;4956484;28;46652;-65
2022/05/06 02:20:31;;;;;;;21.40;16.70;;;13.20;68.80;;;;;;4957634;28;47687;-66
2022/05/06 02:22:57;;;;;;;24.40;17.50;;;13.10;68.90;;;;;;4954833;28;46424;-66
2022/05/06 02:25:23;;;;;;;25.83;17.70;;;13.10;69.10;;;;;;4957315;28;45883;-65
2022/05/06 02:27:50;;;;;;;22.03;15.60;;;13.10;69.40;;;;;;4954162;28;45821;-66
2022/05/06 02:33:12;;;;;;;21.97;15.40;;;13.00;69.70;;;;;;4962731;28;46426;-65
2022/05/06 02:35:38;;;;;;;20.80;15.70;;;12.90;69.90;;;;;;4961521;28;46337;-65
2022/05/06 02:38:05;;;;;;;22.60;16.20;;;12.90;70.10;;;;;;4961234;28;46395;-66
2022/05/06 02:40:33;;;;;;;21.23;15.73;;;12.90;70.10;;;;;;4961072;28;46528;-66
2022/05/06 02:42:58;;;;;;;22.07;17.10;;;12.90;70.00;;;;;;4961349;28;46659;-65
2022/05/06 02:45:24;;;;;;;20.40;15.90;;;13.00;69.90;;;;;;4961841;28;46433;-66
2022/05/06 02:47:50;;;;;;;24.60;17.50;;;13.00;69.90;;;;;;4961327;28;46056;-65
2022/05/06 02:50:15;;;;;;;25.70;18.00;;;13.00;69.70;;;;;;4944559;28;47780;-65
2022/05/06 02:52:41;;;;;;;21.90;16.67;;;13.10;69.60;;;;;;4961609;28;46481;-66
2022/05/06 02:55:07;;;;;;;23.67;16.47;;;13.10;69.40;;;;;;4961498;28;46519;-66
2022/05/06 02:57:33;;;;;;;23.47;16.33;;;13.10;69.40;;;;;;4958210;28;46629;-65
2022/05/06 02:59:58;;;;;;;19.97;16.00;;;13.10;69.40;;;;;;4959942;28;47906;-64
2022/05/06 03:02:24;;;;;;;20.80;16.60;;;13.10;69.30;;;;;;4961898;28;45964;-65
2022/05/06 03:04:50;;;;;;;23.67;15.93;;;13.10;69.30;;;;;;4961468;28;46490;-65
2022/05/06 03:07:15;;;;;;;21.00;15.73;;;13.10;69.40;;;;;;4960344;28;46377;-65
2022/05/06 03:09:41;;;;;;;23.90;17.60;;;13.10;69.50;;;;;;4961788;28;47787;-65
2022/05/06 03:12:08;;;;;;;21.13;16.17;;;13.10;69.50;;;;;;4960803;28;46420;-65
2022/05/06 03:14:34;;;;;;;24.30;17.40;;;13.10;69.70;;;;;;4958687;28;46514;-65
2022/05/06 03:16:59;;;;;;;22.80;16.80;;;13.10;69.70;;;;;;4961725;28;46391;-65
2022/05/06 03:19:25;;;;;;;22.17;16.77;;;13.10;69.60;;;;;;4960387;28;47948;-64
2022/05/06 03:21:54;;;;;;;20.07;15.37;;;13.10;69.50;;;;;;4961127;28;46290;-65
2022/05/06 03:24:20;;;;;;;27.60;16.50;;;13.10;69.40;;;;;;4959953;28;46439;-64
2022/05/06 03:26:46;;;;;;;21.70;15.40;;;13.20;69.40;;;;;;4961432;28;46476;-64
2022/05/06 03:29:12;;;;;;;24.97;16.17;;;13.20;69.40;;;;;;4960826;28;46156;-65
2022/05/06 03:31:38;;;;;;;23.17;16.50;;;13.10;69.40;;;;;;4961681;28;46804;-65
2022/05/06 03:34:05;;;;;;;20.27;15.27;;;13.10;69.40;;;;;;4960866;28;46411;-64
2022/05/06 03:36:32;;;;;;;18.03;13.10;;;13.10;69.60;;;;;;4960365;28;46663;-64
2022/05/06 03:38:58;;;;;;;13.47;10.10;;;13.10;70.00;;;;;;4960487;28;48136;-65
2022/05/06 03:41:24;;;;;;;12.80;9.70;;;13.10;69.90;;;;;;4960965;28;46405;-65
2022/05/06 03:43:49;;;;;;;14.60;9.90;;;13.10;69.70;;;;;;4961326;28;46500;-64
2022/05/06 03:46:15;;;;;;;16.47;9.73;;;13.20;69.60;;;;;;4961244;28;46461;-64
2022/05/06 03:48:41;;;;;;;12.80;9.53;;;13.20;69.70;;;;;;4960359;28;46416;-65
2022/05/06 03:51:22;;;;;;;12.73;9.27;;;13.20;69.80;;;;;;4960826;28;46363;-64
2022/05/06 03:53:52;;;;;;;10.70;8.20;;;13.20;69.90;;;;;;4960384;28;46488;-65
2022/05/06 03:56:19;;;;;;;13.53;8.87;;;13.30;69.90;;;;;;4960384;28;46637;-65
2022/05/06 03:58:45;;;;;;;13.40;9.00;;;13.30;69.70;;;;;;4960463;28;48857;-65
2022/05/06 04:01:11;;;;;;;13.90;9.47;;;13.30;69.50;;;;;;4960867;28;46446;-64
2022/05/06 04:03:38;;;;;;;12.40;8.50;;;13.40;69.40;;;;;;4960191;28;46370;-64
2022/05/06 04:06:05;;;;;;;10.63;8.00;;;13.40;69.60;;;;;;4961246;28;46689;-64
2022/05/06 04:08:32;;;;;;;10.37;7.83;;;13.40;69.50;;;;;;4960077;28;48042;-64
2022/05/06 04:10:57;;;;;;;10.27;7.57;;;13.50;69.40;;;;;;4961393;28;46286;-65
2022/05/06 04:13:24;;;;;;;12.30;8.17;;;13.40;69.60;;;;;;4959908;28;46254;-63
2022/05/06 04:15:50;;;;;;;9.20;7.50;;;13.40;69.70;;;;;;4962643;28;46373;-64
2022/05/06 04:18:16;;;;;;;8.67;7.30;;;13.30;69.90;;;;;;4960491;28;48031;-65
2022/05/06 04:23:29;;;;;;;9.40;7.73;;;13.40;69.60;;;;;;4962562;28;46296;-65
2022/05/06 04:26:10;;;;;;;10.10;7.87;;;13.40;69.60;;;;;;4959313;28;46416;-65
2022/05/06 04:28:40;;;;;;;9.67;8.03;;;13.40;69.70;;;;;;4961048;28;48807;-66
2022/05/06 04:31:06;;;;;;;11.37;8.00;;;13.30;69.80;;;;;;4962635;28;46364;-64
2022/05/06 04:33:33;;;;;;;11.83;9.00;;;13.20;70.20;;;;;;4960431;28;46416;-65
2022/05/06 04:35:59;;;;;;;11.30;7.93;;;13.20;70.60;;;;;;4958356;28;46383;-65
2022/05/06 04:38:28;;;;;;;11.30;8.53;;;13.10;70.90;;;;;;4958780;28;48027;-65
2022/05/06 04:40:55;;;;;;;13.43;8.67;;;13.10;71.10;;;;;;4960345;28;46752;-65
2022/05/06 04:43:21;;;;;;;13.27;9.37;;;13.10;71.40;;;;;;4960847;28;46443;-64
2022/05/06 04:45:50;;;;;;;13.97;8.80;;;13.20;71.00;;;;;;4961848;28;46361;-65
2022/05/06 04:48:17;;;;;;;11.50;8.97;;;13.20;70.60;;;;;;4961282;28;46565;-65
2022/05/06 04:50:44;;;;;;;10.30;8.27;;;13.30;70.50;;;;;;4960291;28;46343;-66
2022/05/06 04:53:10;;;;;;;15.10;9.83;;;13.40;70.20;;;;;;4960660;28;46426;-64
2022/05/06 04:55:38;;;;;;;14.80;9.60;;;13.40;70.00;;;;;;4960261;28;46412;-65
2022/05/06 04:58:04;;;;;;;15.53;10.50;;;13.40;70.00;;;;;;4974259;28;47713;-65
2022/05/06 05:00:31;;;;;;;16.00;11.23;;;13.50;70.30;;;;;;4960706;28;46439;-64
2022/05/06 05:02:57;;;;;;;14.90;9.20;;;13.50;70.40;;;;;;4962168;28;46443;-65
2022/05/06 05:05:24;;;;;;;11.13;8.27;;;13.40;70.60;;;;;;4961965;28;46360;-65
2022/05/06 05:07:50;;;;;;;10.70;7.40;;;13.40;71.10;;;;;;4959679;28;48586;-64
2022/05/06 05:10:16;;;;;;;13.50;9.30;;;13.30;71.40;;;;;;4957783;28;45828;-65
2022/05/06 05:12:42;;;;;;;11.53;8.60;;;13.30;71.70;;;;;;4959824;28;46405;-65
2022/05/06 05:15:08;;;;;;;14.40;10.50;;;13.20;72.00;;;;;;4960487;28;46265;-65
2022/05/06 05:17:34;;;;;;;17.50;13.00;;;13.20;72.10;;;;;;4959835;28;48839;-65
2022/05/06 05:20:00;;;;;;;18.67;13.50;;;13.20;72.20;;;;;;4959613;28;47107;-65
2022/05/06 05:22:26;;;;;;;24.67;15.60;;;13.20;73.60;;;;;;4958200;28;46420;-64
2022/05/06 05:24:51;;;;;;;17.87;13.53;;;13.10;72.50;;;;;;4960068;28;46363;-64
2022/05/06 05:27:17;;;;;;;13.40;10.77;;;13.10;72.60;;;;;;4960014;28;46397;-64
2022/05/06 05:29:43;;;;;;;16.63;11.30;;;13.10;72.90;;;;;;4959577;28;46420;-65
2022/05/06 05:32:10;;;;;;;14.50;10.13;;;13.10;73.10;;;;;;4963062;28;46402;-65
2022/05/06 05:34:35;;;;;;;14.80;10.87;;;13.10;73.00;;;;;;4963658;28;46440;-64
2022/05/06 05:37:01;;;;;;;15.47;11.80;;;13.10;73.10;;;;;;4963170;28;47943;-65
2022/05/06 05:39:27;;;;;;;14.30;10.97;;;13.10;72.90;;;;;;4960050;28;46298;-64
2022/05/06 05:41:53;;;;;;;19.20;12.00;;;13.10;74.30;;;;;;4964379;28;45893;-64
2022/05/06 05:49:48;;;;;;;13.80;10.20;;;13.10;73.80;;;;;;4964523;28;46352;-64
2022/05/06 05:52:14;;;;;;;14.90;10.57;;;13.10;73.60;;;;;;4963744;28;46452;-65
2022/05/06 05:54:40;;;;;;;14.43;11.10;;;13.10;73.60;;;;;;4961909;28;46528;-64
2022/05/06 05:57:06;;;;;;;14.47;10.57;;;13.10;73.90;;;;;;4958236;28;47415;-64
2022/05/06 05:59:33;;;;;;;16.33;11.10;;;13.10;74.00;;;;;;4970085;23;47366;-63
2022/05/06 06:02:00;;;;;;;15.60;11.10;;;13.00;74.10;;;;;;4961974;28;46312;-63
2022/05/06 06:04:26;;;;;;;14.37;10.80;;;13.10;74.10;;;;;;4962030;28;46428;-63
2022/05/06 06:06:51;;;;;;;15.43;12.17;;;13.10;74.00;;;;;;4962370;28;47097;-63
2022/05/06 06:09:17;;;;;;;19.00;11.40;;;13.10;73.80;;;;;;4961804;28;46436;-62
2022/05/06 06:11:43;;;;;;;14.10;11.60;;;13.20;73.60;;;;;;4960387;28;46370;-63
2022/05/06 06:14:09;;;;;;;19.37;12.30;;;13.20;73.70;;;;;;4960330;28;46703;-63
2022/05/06 06:16:35;;;;;;;15.53;11.73;;;13.20;73.50;;;;;;4962072;28;47247;-63
2022/05/06 06:19:00;;;;;;;15.43;12.70;;;13.20;73.60;;;;;;4961631;28;46301;-64
2022/05/06 06:21:26;;;;;;;17.70;13.20;;;13.30;73.60;;;;;;4965828;28;46360;-64
2022/05/06 06:23:53;;;;;;;17.40;13.00;;;13.50;73.50;;;;;;4965392;28;46484;-62
2022/05/06 06:26:18;;;;;;;19.40;14.77;;;13.60;73.10;;;;;;4963985;28;47329;-63
2022/05/06 06:28:44;;;;;;;17.90;14.30;;;13.60;72.90;;;;;;4959692;28;46368;-63
2022/05/06 06:31:10;;;;;;;22.40;15.47;;;13.60;73.10;;;;;;4962742;28;46499;-63
2022/05/06 06:33:38;;;;;;;21.60;15.50;;;13.60;73.10;;;;;;4960804;28;46416;-63
2022/05/06 06:36:07;;;;;;;19.40;15.40;;;13.60;73.20;;;;;;4961384;28;47060;-62
2022/05/06 06:38:33;;;;;;;23.00;16.50;;;13.70;73.00;;;;;;4962000;28;46340;-63
2022/05/06 06:40:59;;;;;;;20.23;16.33;;;13.60;73.10;;;;;;4963798;28;46260;-63
2022/05/06 06:43:25;;;;;;;23.20;16.70;;;13.60;73.30;;;;;;4962160;28;46635;-63
2022/05/06 06:45:51;;;;;;;22.13;16.90;;;13.60;73.00;;;;;;4962005;28;46379;-63
2022/05/06 06:48:17;;;;;;;22.53;17.30;;;13.80;72.90;;;;;;4963163;28;46410;-62
2022/05/06 06:50:42;;;;;;;26.50;18.80;;;13.80;72.60;;;;;;4962676;28;46363;-63
2022/05/06 06:53:08;;;;;;;21.73;17.77;;;13.80;72.70;;;;;;4963311;28;46643;-62
2022/05/06 06:55:34;;;;;;;23.33;16.30;;;13.80;72.80;;;;;;4963032;28;46450;-62
2022/05/06 06:58:00;;;;;;;21.80;16.90;;;13.70;72.40;;;;;;4963461;28;46557;-63
2022/05/06 07:00:25;;;;;;;21.23;17.23;;;13.70;72.50;;;;;;4960975;28;46342;-63
2022/05/06 07:02:51;;;;;;;24.03;16.43;;;13.80;72.50;;;;;;4962809;28;46304;-62
2022/05/06 07:05:17;;;;;;;20.00;16.40;;;13.80;72.30;;;;;;4962967;28;46397;-63
2022/05/06 07:13:11;;;;;;;20.50;15.90;;;14.10;71.10;;;;;;4961069;28;45823;-62
2022/05/06 07:15:37;;;;;;;18.40;14.77;;;14.40;70.50;;;;;;4962584;28;46336;-64
2022/05/06 07:18:03;;;;;;;19.17;14.40;;;14.70;69.70;;;;;;4961812;28;46427;-64
2022/05/06 07:20:28;;;;;;;21.77;17.03;;;14.90;69.00;;;;;;4961793;28;46586;-62
2022/05/06 07:22:54;;;;;;;18.00;14.70;;;15.20;68.50;;;;;;4961079;28;45848;-62
2022/05/06 07:25:20;;;;;;;21.90;13.97;;;15.60;67.10;;;;;;4962824;28;47079;-62
2022/05/06 07:27:45;;;;;;;19.00;14.53;;;15.60;66.30;;;;;;4960196;28;46334;-63
2022/05/06 07:30:12;;;;;;;20.17;14.63;;;15.60;66.50;;;;;;4961746;28;46451;-62
2022/05/06 07:32:37;;;;;;;21.13;15.80;;;15.30;66.80;;;;;;4961920;28;46424;-64
2022/05/06 07:35:04;;;;;;;19.40;15.17;;;15.10;67.00;;;;;;4961961;28;46443;-62
2022/05/06 07:37:33;;;;;;;20.43;15.57;;;15.00;67.50;;;;;;4962125;28;46561;-63
2022/05/06 07:40:00;;;;;;;18.63;15.30;;;14.80;67.40;;;;;;4960848;28;46927;-63
2022/05/06 07:42:25;;;;;;;19.80;15.53;;;14.90;67.40;;;;;;4961765;28;46502;-63
2022/05/06 07:44:51;;;;;;;23.37;17.17;;;14.90;67.30;;;;;;4961868;28;47292;-63
2022/05/06 07:47:17;;;;;;;45.93;18.60;;;14.90;67.10;;;;;;4958721;28;46495;-63
2022/05/06 07:49:42;;;;;;;22.20;17.33;;;14.80;67.10;;;;;;4961206;28;46757;-63
2022/05/06 07:52:08;;;;;;;26.70;17.47;;;14.70;67.20;;;;;;4962285;28;46668;-64
2022/05/06 07:54:33;;;;;;;21.10;16.37;;;14.70;68.20;;;;;;4960333;28;46659;-62
2022/05/06 07:56:59;;;;;;;23.07;17.53;;;14.60;67.40;;;;;;4961836;28;46857;-63
2022/05/06 07:59:25;;;;;;;20.50;15.90;;;14.70;67.00;;;;;;4960673;28;46480;-62
2022/05/06 08:04:38;;;;;;;23.20;15.67;;;14.90;66.40;;;;;;4962093;28;47057;-61
2022/05/06 08:07:05;;;;;;;20.70;17.20;;;15.10;66.20;;;;;;4959383;28;46348;-62
2022/05/06 08:09:32;;;;;;;24.97;16.50;;;15.10;65.90;;;;;;4960598;28;46545;-64
2022/05/06 08:11:58;;;;;;;19.13;16.10;;;15.20;65.80;;;;;;4960231;28;46427;-63
2022/05/06 08:14:24;;;;;;;22.60;16.63;;;15.50;64.80;;;;;;4955527;28;46705;-63
2022/05/06 08:16:50;;;;;;;20.43;15.70;;;15.70;64.10;;;;;;4961494;28;46400;-63
2022/05/06 08:19:17;;;;;;;16.77;13.63;;;15.90;63.50;;;;;;4959003;28;46439;-64
2022/05/06 08:21:42;;;;;;;19.90;15.60;;;16.10;62.80;;;;;;4960927;28;46679;-63
2022/05/06 08:24:08;;;;;;;18.30;14.37;;;16.10;62.60;;;;;;4961189;28;46328;-63
2022/05/06 08:26:35;;;;;;;19.40;15.10;;;16.30;61.80;;;;;;4961701;28;46438;-63
2022/05/06 08:29:01;;;;;;;15.90;14.10;;;16.30;62.00;;;;;;4958486;28;46384;-64
2022/05/06 08:31:27;;;;;;;20.60;16.33;;;16.30;62.20;;;;;;4962350;28;46428;-64
2022/05/06 08:33:54;;;;;;;19.07;14.60;;;16.30;62.00;;;;;;4960223;28;46816;-64
2022/05/06 08:36:19;;;;;;;19.37;14.97;;;16.20;61.70;;;;;;4959235;28;45760;-63
2022/05/06 08:38:45;;;;;;;19.17;14.60;;;16.30;61.40;;;;;;4960226;28;46517;-64
2022/05/06 08:41:12;;;;;;;19.80;14.07;;;16.40;60.90;;;;;;4960607;28;46370;-63
2022/05/06 08:43:38;;;;;;;26.07;14.70;;;16.50;60.80;;;;;;4960485;28;46837;-63
2022/05/06 08:51:38;;;;;;;17.00;14.03;;;16.70;59.70;;;;;;4960827;28;46606;-63
2022/05/06 08:54:04;;;;;;;18.97;13.13;;;16.70;59.40;;;;;;4959826;28;48274;-63
2022/05/06 08:56:31;;;;;;;21.50;14.83;;;16.70;59.40;;;;;;4960727;28;46356;-63
2022/05/06 08:58:59;;;;;;;18.70;13.60;;;16.80;59.00;;;;;;4958163;28;45910;-64
2022/05/06 09:01:25;;;;;;;19.60;14.93;;;16.90;58.80;;;;;;4959998;28;46555;-63
2022/05/06 09:03:52;;;;;;;18.97;14.30;;;16.80;58.20;;;;;;4960592;28;46634;-64
2022/05/06 09:06:20;;;;;;;17.73;14.07;;;16.70;58.40;;;;;;4959846;28;46470;-64
2022/05/06 09:08:47;;;;;;;18.33;13.20;;;16.90;58.00;;;;;;4959560;28;46229;-64
2022/05/06 09:11:13;;;;;;;21.63;15.13;;;17.00;58.10;;;;;;4960252;28;46451;-63
2022/05/06 09:13:59;;;;;;;20.97;14.17;;;16.90;58.00;;;;;;4958607;28;46623;-63
2022/05/06 09:16:44;;;;;;;16.37;13.00;;;16.70;57.80;;;;;;4958591;28;46590;-61
2022/05/06 09:19:21;;;;;;;19.80;13.90;;;16.60;57.70;;;;;;4959777;28;46408;-62
2022/05/06 09:22:20;;;;;;;18.43;14.50;;;16.30;58.20;;;;;;4958823;28;46656;-61
2022/05/06 09:24:47;;;;;;;16.27;12.60;;;16.10;58.70;;;;;;4960784;28;46340;-64
2022/05/06 09:27:14;;;;;;;16.33;13.63;;;16.00;58.70;;;;;;4961210;28;46795;-63
2022/05/06 09:29:43;;;;;;;27.00;15.73;;;16.00;59.10;;;;;;4957431;28;46459;-63
2022/05/06 09:32:28;;;;;;;17.83;14.23;;;16.00;59.50;;;;;;4960167;28;46479;-64
2022/05/06 09:34:56;;;;;;;17.87;14.67;;;16.00;59.30;;;;;;4960055;28;46342;-63
2022/05/06 09:37:29;;;;;;;20.97;15.57;;;16.00;59.40;;;;;;4960114;28;46344;-63
2022/05/06 09:40:13;;;;;;;21.37;16.97;;;15.80;59.80;;;;;;4958534;28;46478;-62
2022/05/06 09:42:44;;;;;;;20.47;15.13;;;15.50;60.80;;;;;;4959632;28;46249;-63
2022/05/06 09:45:13;;;;;;;19.47;16.53;;;15.30;61.20;;;;;;4957664;28;46505;-63
2022/05/06 09:48:02;;;;;;;20.43;15.70;;;15.30;61.60;;;;;;4960199;28;46685;-63
2022/05/06 09:50:45;;;;;;;20.73;15.00;;;15.60;61.10;;;;;;4957805;28;46507;-64
2022/05/06 09:53:15;;;;;;;18.23;14.60;;;15.90;60.40;;;;;;4960090;28;46436;-66
2022/05/06 09:55:46;;;;;;;18.77;14.50;;;15.90;60.00;;;;;;4959336;28;46418;-64
2022/05/06 09:58:14;;;;;;;17.90;15.13;;;16.00;59.90;;;;;;4960043;28;46372;-64
2022/05/06 10:00:40;;;;;;;19.20;15.67;;;16.10;59.90;;;;;;4957752;28;46427;-63
2022/05/06 10:03:07;;;;;;;19.50;14.77;;;16.20;59.70;;;;;;4960176;28;46422;-63
2022/05/06 10:05:35;;;;;;;21.13;14.70;;;16.40;59.00;;;;;;4959473;28;46978;-63
2022/05/06 10:08:21;;;;;;;20.00;15.13;;;16.50;58.80;;;;;;4958308;28;46684;-64
2022/05/06 10:10:59;;;;;;;20.87;15.70;;;16.60;58.70;;;;;;4958869;28;46674;-63
2022/05/06 10:13:27;;;;;;;17.87;15.17;;;16.60;58.50;;;;;;4959901;28;46774;-64
2022/05/06 10:15:54;;;;;;;18.00;13.97;;;16.20;58.80;;;;;;4958359;28;46933;-63
2022/05/06 10:18:34;;;;;;;23.03;15.93;;;15.90;59.40;;;;;;4962178;28;46432;-63
2022/05/06 10:21:01;;;;;;;18.80;15.90;;;15.60;60.30;;;;;;4962411;28;46619;-64
2022/05/06 10:23:48;;;;;;;19.23;16.10;;;15.60;60.70;;;;;;4962655;28;46363;-62
2022/05/06 10:26:33;;;;;;;19.70;15.60;;;15.90;60.30;;;;;;4963114;28;46388;-64
2022/05/06 10:34:29;;;;;;;18.23;15.10;;;16.30;60.40;;;;;;4963019;28;46682;-63
2022/05/06 10:36:57;;;;;;;21.10;17.20;;;16.20;59.50;;;;;;4961151;28;46303;-63
2022/05/06 10:39:27;;;;;;;25.93;17.93;;;15.90;60.20;;;;;;4962582;28;46328;-60
2022/05/06 10:42:16;;;;;;;22.57;17.47;;;15.80;60.80;;;;;;4958279;28;46406;-64
2022/05/06 10:44:42;;;;;;;23.07;16.80;;;15.40;63.10;;;;;;4958832;28;46415;-64
2022/05/06 10:47:11;;;;;;;21.23;17.07;;;15.10;63.00;;;;;;4962144;28;46455;-65
2022/05/06 10:49:39;;;;;;;20.80;17.13;;;14.90;63.70;;;;;;4960340;28;46728;-62
2022/05/06 10:52:20;;;;;;;20.90;16.50;;;14.90;64.10;;;;;;4962159;28;45816;-63
2022/05/06 10:54:50;;;;;;;21.20;16.73;;;14.70;64.40;;;;;;4961728;28;46527;-63
2022/05/06 10:57:20;;;;;;;20.73;15.60;;;14.50;65.10;;;;;;4962708;28;46558;-62
2022/05/06 11:00:01;;;;;;;22.93;16.30;;;14.30;65.70;;;;;;4956753;28;46478;-63
2022/05/06 11:02:35;;;;;;;23.57;16.60;;;14.40;66.00;;;;;;4960184;28;46243;-63
2022/05/06 11:05:09;;;;;;;18.07;13.80;;;14.40;65.80;;;;;;4961526;28;45862;-63
2022/05/06 11:07:37;;;;;;;19.00;14.53;;;14.40;66.20;;;;;;4961378;28;46627;-63
2022/05/06 11:10:10;;;;;;;21.80;16.90;;;14.20;66.90;;;;;;4958690;28;46811;-60
2022/05/06 11:12:48;;;;;;;24.03;15.97;;;14.20;66.70;;;;;;4958144;28;46371;-61
2022/05/06 11:15:33;;;;;;;24.70;16.20;;;14.00;66.80;;;;;;4962158;28;46500;-62
2022/05/06 11:18:01;;;;;;;25.00;16.43;;;13.90;66.70;;;;;;4962243;28;47136;-61
2022/05/06 11:20:35;;;;;;;35.63;16.87;;;13.80;66.80;;;;;;4955108;28;46518;-62
2022/05/06 11:23:09;;;;;;;24.80;18.70;;;13.60;67.70;;;;;;4958572;28;46467;-62
2022/05/06 11:25:37;;;;;;;28.10;17.00;;;13.40;67.60;;;;;;4960622;28;46721;-62
2022/05/06 11:28:13;;;;;;;43.77;29.90;;;13.50;67.70;;;;;;4961206;28;47416;-62
2022/05/06 11:30:45;;;;;;;25.37;18.13;;;13.50;67.70;;;;;;4958376;28;46419;-62
2022/05/06 11:33:28;;;;;;;27.83;18.73;;;13.50;67.60;;;;;;4961726;28;46653;-62
2022/05/06 11:36:01;;;;;;;32.40;19.93;;;13.50;67.60;;;;;;4958332;28;46353;-62
2022/05/06 11:38:32;;;;;;;28.83;20.63;;;13.40;68.00;;;;;;4960406;28;47001;-60
2022/05/06 11:41:15;;;;;;;28.03;19.70;;;13.40;68.20;;;;;;4952844;28;46848;-62
2022/05/06 11:43:42;;;;;;;24.60;18.23;;;13.40;69.90;;;;;;4959763;28;46505;-62
2022/05/06 11:49:29;;;;;;;26.37;19.83;;;13.20;70.20;;;;;;4956232;28;46511;-63
2022/05/06 11:51:56;;;;;;;31.93;20.13;;;13.10;70.50;;;;;;4955639;28;46437;-63
2022/05/06 11:54:22;;;;;;;38.87;20.77;;;13.00;70.60;;;;;;4954648;28;46483;-63
2022/05/06 11:56:48;;;;;;;29.87;21.33;;;13.10;70.90;;;;;;4962632;28;46546;-64
2022/05/06 11:59:17;;;;;;;29.90;23.40;;;13.10;70.50;;;;;;4953756;28;47425;-64
2022/05/06 12:01:42;;;;;;;33.73;23.77;;;13.30;70.10;;;;;;4954388;28;47048;-64
2022/05/06 12:04:10;;;;;;;29.03;22.80;;;13.40;69.80;;;;;;4954242;28;46452;-64
2022/05/06 12:06:41;;;;;;;29.50;21.50;;;13.50;69.40;;;;;;4957880;28;46464;-64
2022/05/06 12:09:16;;;;;;;33.80;22.17;;;13.60;69.40;;;;;;4957057;28;46492;-64
2022/05/06 12:11:43;;;;;;;29.40;20.70;;;13.60;69.70;;;;;;4956836;28;46496;-63
2022/05/06 12:14:13;;;;;;;32.97;23.10;;;13.60;70.10;;;;;;4958265;28;46456;-63
2022/05/06 12:16:54;;;;;;;30.80;22.13;;;13.50;70.60;;;;;;4955016;28;46431;-63
2022/05/06 12:19:32;;;;;;;33.97;21.70;;;13.70;70.20;;;;;;4953094;28;47319;-62
2022/05/06 12:22:15;;;;;;;30.23;22.47;;;13.70;70.50;;;;;;4957388;28;46803;-61
2022/05/06 12:24:50;;;;;;;28.10;22.00;;;13.60;71.50;;;;;;4958006;28;46420;-63
2022/05/06 12:27:26;;;;;;;31.93;23.03;;;13.60;71.40;;;;;;4955408;28;46332;-64
2022/05/06 12:29:52;;;;;;;29.10;22.00;;;13.70;71.60;;;;;;4947906;28;48723;-64
2022/05/06 12:32:18;;;;;;;27.27;20.63;;;13.70;71.10;;;;;;4958397;28;46501;-64
2022/05/06 12:34:43;;;;;;;29.67;20.67;;;13.80;71.30;;;;;;4957454;28;45870;-64
2022/05/06 12:37:12;;;;;;;28.57;21.17;;;13.90;71.70;;;;;;4956543;28;46372;-64
2022/05/06 12:39:45;;;;;;;29.03;20.63;;;14.10;71.10;;;;;;4956203;28;47042;-64
2022/05/06 12:42:20;;;;;;;27.10;19.97;;;14.20;71.10;;;;;;4960085;28;46474;-64
2022/05/06 12:44:47;;;;;;;24.33;19.83;;;14.30;70.90;;;;;;4959294;28;46489;-63
2022/05/06 12:49:39;;;;;;;28.87;21.23;;;14.50;70.70;;;;;;4960447;28;46575;-65
2022/05/06 12:50:05;;;;;;;27.10;20.17;;;14.80;69.80;;;;;;4954996;28;47090;-64
2022/05/06 12:52:32;;;;;;;27.23;20.23;;;14.90;68.90;;;;;;4958411;28;46524;-63
2022/05/06 12:54:58;;;;;;;31.20;20.20;;;14.90;69.00;;;;;;4960222;28;46439;-63
2022/05/06 12:57:24;;;;;;;29.67;19.10;;;14.90;69.00;;;;;;4961221;28;46505;-63
2022/05/06 12:59:50;;;;;;;25.00;19.37;;;14.70;69.40;;;;;;4959719;28;46827;-63
2022/05/06 13:02:16;;;;;;;24.67;20.00;;;14.60;69.70;;;;;;4960046;28;46445;-63
2022/05/06 13:04:42;;;;;;;31.07;23.13;;;14.60;69.80;;;;;;4959909;28;46625;-63
2022/05/06 13:07:08;;;;;;;28.87;20.43;;;14.40;70.40;;;;;;4961252;28;46458;-63
2022/05/06 13:09:33;;;;;;;25.57;18.80;;;14.50;70.40;;;;;;4959936;28;46622;-62
2022/05/06 13:12:00;;;;;;;26.33;18.70;;;14.50;70.60;;;;;;4960224;28;46498;-63